Time;durP1;ratioP1;P1;durP2;ratioP2;P2;SDS_P1;SDS_P2;PMS_P1;PMS_P2;Temp;Humidity;BMP_temperature;BMP_pressure;BME280_temperature;BME280_humidity;BME280_pressure;Samples;Min_cycle;Max_cycle;Signal;HPM_P1;HPM_P2
2023/07/06 00:00:39;;;;;;;6.10;5.00;;;;;;;19.25;79.59;100302.89;104044;276;38522;-70
2023/07/06 00:03:34;;;;;;;7.80;5.00;;;;;;;19.23;79.77;100308.33;104077;276;38286;-70
2023/07/06 00:06:10;;;;;;;6.30;4.80;;;;;;;19.22;79.78;100308.04;103877;276;38366;-70
2023/07/06 00:08:45;;;;;;;7.30;5.00;;;;;;;19.21;79.98;100304.77;104095;276;38281;-72
2023/07/06 00:11:20;;;;;;;7.00;5.40;;;;;;;19.20;80.14;100310.35;104048;276;38505;-73
2023/07/06 00:13:54;;;;;;;6.10;5.50;;;;;;;19.20;80.39;100316.70;104011;274;38352;-71
2023/07/06 00:16:28;;;;;;;7.20;5.80;;;;;;;19.17;80.41;100315.69;104059;276;38521;-70
2023/07/06 00:19:03;;;;;;;6.10;4.70;;;;;;;19.16;80.56;100321.24;104021;276;39084;-72
2023/07/06 00:21:38;;;;;;;6.20;5.30;;;;;;;19.19;80.79;100329.67;104004;276;38258;-73
2023/07/06 00:24:15;;;;;;;8.00;5.50;;;;;;;19.17;80.62;100319.42;104056;276;38274;-70
2023/07/06 00:26:49;;;;;;;7.80;5.50;;;;;;;19.15;80.73;100321.33;103975;276;39436;-70
2023/07/06 00:29:23;;;;;;;6.30;5.00;;;;;;;19.15;80.71;100319.44;104022;276;39020;-70
2023/07/06 00:32:15;;;;;;;5.90;5.00;;;;;;;19.13;80.85;100315.51;103871;276;40447;-70
2023/07/06 00:34:50;;;;;;;6.80;5.00;;;;;;;19.13;80.87;100313.70;104018;276;38272;-71
2023/07/06 00:37:26;;;;;;;7.50;5.50;;;;;;;19.11;80.95;100309.45;103998;276;38317;-72
2023/07/06 00:40:01;;;;;;;5.50;4.90;;;;;;;19.12;81.15;100312.23;103934;276;40059;-73
2023/07/06 00:42:37;;;;;;;6.20;4.80;;;;;;;19.11;81.22;100313.48;104141;275;38498;-73
2023/07/06 00:45:15;;;;;;;5.60;5.10;;;;;;;19.11;81.26;100313.69;104222;275;38412;-70
2023/07/06 00:47:52;;;;;;;5.40;4.80;;;;;;;19.10;81.25;100314.11;104181;275;38239;-71
2023/07/06 00:50:28;;;;;;;5.40;4.90;;;;;;;19.11;81.45;100315.29;104152;275;38280;-72
2023/07/06 00:53:05;;;;;;;7.00;5.20;;;;;;;19.10;81.55;100312.68;104145;275;38616;-70
2023/07/06 00:55:41;;;;;;;6.90;5.10;;;;;;;19.08;81.28;100303.45;104180;275;39464;-70
2023/07/06 00:58:19;;;;;;;5.20;4.30;;;;;;;19.08;81.39;100307.52;104164;275;38226;-72
2023/07/06 01:00:54;;;;;;;6.30;5.20;;;;;;;19.09;81.33;100304.08;104139;275;38414;-73
2023/07/06 01:03:31;;;;;;;5.40;4.40;;;;;;;19.08;81.41;100301.86;104188;275;38787;-72
2023/07/06 01:06:05;;;;;;;7.60;4.90;;;;;;;19.05;81.27;100299.83;104125;275;38858;-72
2023/07/06 01:08:40;;;;;;;5.70;4.90;;;;;;;19.03;81.34;100300.32;104104;275;174648;-70
2023/07/06 01:11:16;;;;;;;6.50;5.40;;;;;;;19.02;81.50;100298.44;104135;275;38331;-70
2023/07/06 01:13:53;;;;;;;11.40;7.00;;;;;;;19.01;81.43;100298.34;104052;275;174419;-71
2023/07/06 01:16:36;;;;;;;7.90;5.80;;;;;;;19.00;81.50;100297.13;104125;275;39255;-70
2023/07/06 01:19:23;;;;;;;5.70;4.90;;;;;;;18.99;81.43;100295.67;104195;275;39423;-70
2023/07/06 01:22:12;;;;;;;5.70;4.50;;;;;;;18.95;81.58;100297.70;104170;275;38394;-71
2023/07/06 01:24:57;;;;;;;;;;;;;;;18.93;81.76;100295.56;104226;275;38277;-73
2023/07/06 01:27:55;;;;;;;5.90;4.60;;;;;;;18.85;81.68;100298.50;104044;276;39570;-72
2023/07/06 01:31:00;;;;;;;5.10;4.40;;;;;;;18.80;81.97;100294.04;104155;275;38825;-70
2023/07/06 01:33:39;;;;;;;5.30;4.80;;;;;;;18.80;82.08;100294.08;103826;280;38264;-72
2023/07/06 01:36:21;;;;;;;5.00;4.30;;;;;;;18.79;81.89;100289.14;104142;275;40156;-72
2023/07/06 01:39:15;;;;;;;6.00;4.40;;;;;;;18.77;81.72;100292.53;104184;275;38875;-70
2023/07/06 01:42:29;;;;;;;5.00;4.50;;;;;;;18.73;81.70;100296.17;104145;275;38274;-70
2023/07/06 01:45:07;;;;;;;5.00;4.50;;;;;;;18.70;81.89;100296.91;104081;275;39016;-73
2023/07/06 01:47:44;;;;;;;5.60;4.70;;;;;;;18.66;81.78;100296.98;104182;275;38840;-72
2023/07/06 01:50:20;;;;;;;5.40;4.40;;;;;;;18.63;81.79;100291.92;104171;275;38533;-72
2023/07/06 01:53:08;;;;;;;4.80;4.40;;;;;;;18.59;81.84;100288.68;104190;275;38408;-71
2023/07/06 01:55:46;;;;;;;5.30;4.10;;;;;;;18.55;81.78;100287.52;104203;275;39663;-70
2023/07/06 01:58:24;;;;;;;5.00;4.00;;;;;;;18.53;81.78;100285.23;104114;275;38236;-72
2023/07/06 02:01:05;;;;;;;4.80;4.30;;;;;;;18.50;81.81;100284.14;104076;276;38246;-73
2023/07/06 02:03:46;;;;;;;7.80;4.30;;;;;;;18.48;81.95;100283.95;104141;276;38214;-70
2023/07/06 02:06:26;;;;;;;6.40;4.70;;;;;;;18.47;82.04;100286.35;104098;276;39234;-70
2023/07/06 02:09:04;;;;;;;5.40;4.10;;;;;;;18.45;82.09;100285.97;104108;276;38240;-72
2023/07/06 02:11:38;;;;;;;5.60;4.40;;;;;;;18.43;82.09;100285.72;104128;276;39989;-72
2023/07/06 02:14:14;;;;;;;4.70;4.30;;;;;;;18.42;82.03;100284.39;104117;276;38427;-72
2023/07/06 02:16:50;;;;;;;6.10;4.70;;;;;;;18.39;82.10;100283.02;104074;276;40023;-72
2023/07/06 02:19:25;;;;;;;4.50;3.90;;;;;;;18.35;81.92;100284.05;104134;276;38590;-72
2023/07/06 02:22:03;;;;;;;6.20;4.30;;;;;;;18.30;82.04;100280.48;104062;275;38444;-73
2023/07/06 02:24:38;;;;;;;6.10;4.60;;;;;;;18.25;81.95;100283.12;104102;276;38707;-73
2023/07/06 02:27:12;;;;;;;5.20;4.70;;;;;;;18.20;82.07;100281.95;104075;276;39401;-73
2023/07/06 02:29:47;;;;;;;4.70;4.30;;;;;;;18.15;82.26;100283.52;103964;276;174530;-71
2023/07/06 02:32:25;;;;;;;6.40;4.80;;;;;;;18.13;82.58;100288.10;104070;276;39632;-72
2023/07/06 02:34:59;;;;;;;5.20;4.10;;;;;;;18.10;82.48;100290.58;104085;276;40378;-73
2023/07/06 02:37:38;;;;;;;4.60;3.80;;;;;;;18.09;82.66;100296.15;104094;276;38379;-72
2023/07/06 02:40:17;;;;;;;6.60;4.00;;;;;;;18.09;82.61;100295.26;104089;276;38288;-72
2023/07/06 02:42:51;;;;;;;4.90;4.20;;;;;;;18.07;82.81;100295.03;104115;276;39426;-71
2023/07/06 02:45:26;;;;;;;4.80;4.00;;;;;;;18.04;82.78;100297.88;104067;276;38259;-70
2023/07/06 02:48:01;;;;;;;6.40;4.20;;;;;;;18.04;83.10;100299.48;104004;276;39613;-70
2023/07/06 02:50:36;;;;;;;4.40;3.70;;;;;;;18.05;83.28;100298.87;104060;276;38682;-70
2023/07/06 02:53:11;;;;;;;5.30;4.10;;;;;;;18.07;83.24;100301.02;104073;276;38485;-69
2023/07/06 02:55:51;;;;;;;4.90;4.30;;;;;;;18.09;83.37;100306.54;104071;276;38516;-69
2023/07/06 02:58:27;;;;;;;5.80;4.10;;;;;;;18.11;83.59;100312.08;104078;276;38564;-70
2023/07/06 03:01:01;;;;;;;6.30;4.00;;;;;;;18.13;83.52;100312.82;104058;276;38233;-70
2023/07/06 03:03:37;;;;;;;5.80;3.70;;;;;;;18.12;83.62;100312.34;104127;276;38351;-72
2023/07/06 03:06:12;;;;;;;5.70;3.70;;;;;;;18.13;83.63;100313.52;104082;276;38225;-72
2023/07/06 03:08:47;;;;;;;6.20;4.50;;;;;;;18.14;83.75;100314.12;104127;276;38512;-71
2023/07/06 03:11:23;;;;;;;5.10;3.90;;;;;;;18.19;84.00;100314.52;104131;276;38821;-71
2023/07/06 03:13:59;;;;;;;6.60;4.10;;;;;;;18.22;84.14;100323.26;104112;276;38973;-71
2023/07/06 03:16:39;;;;;;;6.20;4.30;;;;;;;18.25;84.39;100330.84;104075;276;38654;-71
2023/07/06 03:19:15;;;;;;;5.00;4.30;;;;;;;18.30;84.43;100335.25;104092;276;38635;-70
2023/07/06 03:21:49;;;;;;;4.10;3.70;;;;;;;18.35;84.54;100334.38;104070;276;38233;-70
2023/07/06 03:24:24;;;;;;;5.40;3.80;;;;;;;18.39;84.69;100336.16;103975;276;38805;-71
2023/07/06 03:26:58;;;;;;;5.90;4.70;;;;;;;18.47;84.74;100338.30;104047;276;38284;-71
2023/07/06 03:29:35;;;;;;;6.70;5.20;;;;;;;18.53;84.68;100341.91;104126;275;38504;-74
2023/07/06 03:32:14;;;;;;;5.80;4.60;;;;;;;18.57;84.61;100340.23;104056;276;39472;-72
2023/07/06 03:34:51;;;;;;;5.00;4.10;;;;;;;18.60;84.41;100337.18;104078;276;38452;-73
2023/07/06 03:37:26;;;;;;;8.30;5.00;;;;;;;18.64;84.39;100333.05;103922;276;41414;-73
2023/07/06 03:40:03;;;;;;;5.50;4.10;;;;;;;18.67;84.43;100335.61;104078;277;38226;-73
2023/07/06 03:42:39;;;;;;;6.30;4.70;;;;;;;18.71;84.26;100339.92;104014;276;38925;-72
2023/07/06 03:45:17;;;;;;;6.80;5.10;;;;;;;18.74;84.52;100346.98;104086;276;38615;-72
2023/07/06 03:47:52;;;;;;;8.10;5.10;;;;;;;18.77;84.44;100347.84;104091;276;39019;-72
2023/07/06 03:50:27;;;;;;;5.40;4.60;;;;;;;18.78;84.36;100356.04;104057;276;39456;-73
2023/07/06 03:53:05;;;;;;;5.90;4.70;;;;;;;18.81;84.36;100355.49;104050;276;38289;-71
2023/07/06 03:55:40;;;;;;;5.50;4.80;;;;;;;18.82;84.38;100358.39;104048;276;39012;-71
2023/07/06 03:58:20;;;;;;;5.60;4.70;;;;;;;18.86;84.50;100360.96;104067;276;38286;-72
2023/07/06 04:00:58;;;;;;;5.40;4.80;;;;;;;18.87;84.30;100354.50;104102;276;38219;-73
2023/07/06 04:03:33;;;;;;;7.30;5.30;;;;;;;18.89;84.19;100357.19;104096;276;39386;-73
2023/07/06 04:06:08;;;;;;;10.30;5.10;;;;;;;18.91;83.99;100359.15;104079;276;38379;-73
2023/07/06 04:08:42;;;;;;;6.60;4.80;;;;;;;18.95;84.20;100364.16;103943;276;38602;-70
2023/07/06 04:11:17;;;;;;;6.90;4.70;;;;;;;19.01;84.13;100364.25;104038;276;38267;-71
2023/07/06 04:13:57;;;;;;;6.90;5.10;;;;;;;19.07;84.00;100365.27;104081;276;38277;-72
2023/07/06 04:16:31;;;;;;;5.60;4.80;;;;;;;19.07;83.77;100368.04;103914;277;38567;-73
2023/07/06 04:19:06;;;;;;;5.10;4.50;;;;;;;19.08;83.87;100369.92;104094;276;38266;-70
2023/07/06 04:21:43;;;;;;;7.60;4.90;;;;;;;19.11;83.80;100376.30;104071;276;38521;-69
2023/07/06 04:24:24;;;;;;;6.20;5.40;;;;;;;19.15;83.83;100378.30;104032;276;39457;-70
2023/07/06 04:26:59;;;;;;;7.70;5.40;;;;;;;19.19;83.75;100379.02;104091;276;38240;-70
2023/07/06 04:29:34;;;;;;;5.90;4.30;;;;;;;19.26;83.77;100380.28;104017;276;174792;-72
2023/07/06 04:32:14;;;;;;;5.30;4.40;;;;;;;19.28;83.46;100381.21;104070;276;38727;-71
2023/07/06 04:34:48;;;;;;;9.00;4.70;;;;;;;19.30;83.24;100381.77;104127;276;38489;-71
2023/07/06 04:37:22;;;;;;;6.10;4.70;;;;;;;19.33;83.37;100383.27;103914;277;38271;-73
2023/07/06 04:39:57;;;;;;;6.90;4.80;;;;;;;19.39;83.54;100381.78;104052;264;38380;-71
2023/07/06 04:42:33;;;;;;;5.80;4.50;;;;;;;19.46;83.53;100376.66;104049;276;38253;-71
2023/07/06 04:45:11;;;;;;;5.10;4.70;;;;;;;19.53;83.19;100378.95;104049;276;38501;-71
2023/07/06 04:47:46;;;;;;;5.50;4.80;;;;;;;19.57;82.99;100382.53;104084;276;40410;-71
2023/07/06 04:50:22;;;;;;;6.50;4.70;;;;;;;19.61;82.94;100383.72;104027;276;38370;-73
2023/07/06 04:53:00;;;;;;;5.30;4.90;;;;;;;19.64;82.72;100390.02;104077;276;38432;-70
2023/07/06 04:55:38;;;;;;;6.10;4.70;;;;;;;19.69;82.46;100393.92;104037;276;38289;-70
2023/07/06 04:58:13;;;;;;;8.20;5.20;;;;;;;19.71;82.09;100392.00;104042;276;39476;-71
2023/07/06 05:00:47;;;;;;;6.70;5.00;;;;;;;19.70;82.12;100394.58;103975;276;38703;-72
2023/07/06 05:03:22;;;;;;;7.20;4.40;;;;;;;19.68;81.92;100398.41;104019;276;39906;-70
2023/07/06 05:05:57;;;;;;;6.00;5.00;;;;;;;19.69;81.97;100401.00;103998;276;38466;-70
2023/07/06 05:08:33;;;;;;;5.60;4.70;;;;;;;19.72;82.08;100402.02;104040;276;38292;-73
2023/07/06 05:11:08;;;;;;;7.00;5.30;;;;;;;19.80;82.25;100402.81;104003;276;38452;-73
2023/07/06 05:13:42;;;;;;;6.00;5.20;;;;;;;19.91;82.39;100407.95;103933;276;39514;-71
2023/07/06 05:16:16;;;;;;;7.10;5.30;;;;;;;20.05;82.59;100411.14;104001;288;38554;-71
2023/07/06 05:18:51;;;;;;;5.30;4.30;;;;;;;20.19;82.31;100414.20;103676;276;526904;-71
2023/07/06 05:21:26;;;;;;;6.00;4.60;;;;;;;20.32;82.22;100415.65;104007;276;38987;-71
2023/07/06 05:24:00;;;;;;;9.20;5.50;;;;;;;20.42;81.79;100422.48;104112;276;38894;-73
2023/07/06 05:26:34;;;;;;;6.70;5.50;;;;;;;20.56;81.70;100423.50;104120;276;38716;-73
2023/07/06 05:29:09;;;;;;;6.20;5.30;;;;;;;20.68;81.43;100425.73;104106;276;39401;-73
2023/07/06 05:31:48;;;;;;;7.80;5.50;;;;;;;20.85;80.82;100429.17;103981;276;38330;-73
2023/07/06 05:34:22;;;;;;;6.70;5.10;;;;;;;20.98;80.31;100431.19;104053;276;38233;-71
2023/07/06 05:36:56;;;;;;;9.90;6.00;;;;;;;21.17;80.71;100434.92;104110;276;39377;-71
2023/07/06 05:39:30;;;;;;;6.00;5.40;;;;;;;21.53;80.92;100435.56;104111;276;38607;-71
2023/07/06 05:42:13;;;;;;;6.20;5.20;;;;;;;21.93;80.58;100435.63;104094;276;39481;-71
2023/07/06 05:44:52;;;;;;;6.80;5.10;;;;;;;22.34;79.47;100439.55;104145;276;38355;-72
2023/07/06 05:47:29;;;;;;;8.50;5.90;;;;;;;22.64;77.33;100432.68;104057;277;38253;-73
2023/07/06 05:50:05;;;;;;;6.70;5.70;;;;;;;22.82;75.69;100435.39;103419;276;893964;-70
2023/07/06 05:52:40;;;;;;;10.50;6.30;;;;;;;22.88;74.26;100441.38;104070;276;38749;-71
2023/07/06 05:55:15;;;;;;;9.50;6.00;;;;;;;22.84;73.09;100444.84;104108;276;39258;-71
2023/07/06 05:57:50;;;;;;;9.20;5.80;;;;;;;22.77;72.47;100456.85;104095;264;39795;-71
2023/07/06 06:00:25;;;;;;;13.00;6.50;;;;;;;22.65;72.14;100464.27;104066;276;38291;-70
2023/07/06 06:02:59;;;;;;;12.70;6.80;;;;;;;22.59;72.21;100468.18;104064;276;38383;-70
2023/07/06 06:05:34;;;;;;;10.30;7.00;;;;;;;22.52;71.99;100473.00;104123;275;38227;-70
2023/07/06 06:08:09;;;;;;;9.10;7.10;;;;;;;22.40;71.88;100471.39;104166;276;39446;-72
2023/07/06 06:10:43;;;;;;;10.70;6.70;;;;;;;22.27;71.85;100474.31;104081;276;39563;-72
2023/07/06 06:13:18;;;;;;;8.30;6.20;;;;;;;22.18;72.22;100481.80;104107;276;39863;-72
2023/07/06 06:15:53;;;;;;;7.20;6.20;;;;;;;22.22;72.70;100484.14;104084;276;39066;-72
2023/07/06 06:18:28;;;;;;;9.90;6.30;;;;;;;22.47;73.67;100484.84;104155;276;39434;-71
2023/07/06 06:21:03;;;;;;;7.90;6.30;;;;;;;22.72;73.23;100491.20;104077;276;38396;-71
2023/07/06 06:23:42;;;;;;;8.10;6.70;;;;;;;22.90;72.25;100496.23;104047;277;38838;-73
2023/07/06 06:26:16;;;;;;;6.80;6.20;;;;;;;22.92;71.48;100498.58;104073;276;38611;-72
2023/07/06 06:28:50;;;;;;;8.10;6.50;;;;;;;22.90;70.88;100501.04;104105;276;38527;-71
2023/07/06 06:31:24;;;;;;;13.20;6.10;;;;;;;22.89;70.43;100502.36;104072;276;38233;-70
2023/07/06 06:33:58;;;;;;;11.20;6.50;;;;;;;22.99;71.40;100503.95;104098;276;39921;-70
2023/07/06 06:36:32;;;;;;;11.60;6.20;;;;;;;23.45;71.21;100509.48;104042;276;38403;-70
2023/07/06 06:39:07;;;;;;;10.50;6.50;;;;;;;23.96;71.08;100511.66;104067;276;38884;-71
2023/07/06 06:41:41;;;;;;;9.10;6.00;;;;;;;24.96;69.57;100507.08;104096;276;39888;-70
2023/07/06 06:44:15;;;;;;;7.50;5.60;;;;;;;26.02;66.37;100505.20;104107;276;38504;-72
2023/07/06 06:46:49;;;;;;;7.60;5.20;;;;;;;27.07;62.73;100503.71;104078;276;39858;-72
2023/07/06 06:49:24;;;;;;;10.10;5.60;;;;;;;28.05;59.80;100510.95;104130;276;39531;-72
2023/07/06 06:52:00;;;;;;;11.50;5.40;;;;;;;28.77;57.60;100513.48;104068;265;38514;-73
2023/07/06 06:54:37;;;;;;;6.00;5.20;;;;;;;29.65;54.11;100510.52;104061;276;38649;-71
2023/07/06 06:57:14;;;;;;;6.30;5.30;;;;;;;29.62;51.03;100516.37;104089;276;38283;-70
2023/07/06 06:59:48;;;;;;;5.40;4.50;;;;;;;29.25;50.23;100523.16;103968;276;187502;-69
2023/07/06 07:02:23;;;;;;;6.20;5.20;;;;;;;28.99;49.68;100530.47;104067;276;38261;-70
2023/07/06 07:05:00;;;;;;;6.80;5.20;;;;;;;28.67;50.04;100536.03;104125;276;38869;-72
2023/07/06 07:07:38;;;;;;;6.10;5.50;;;;;;;28.61;49.74;100535.24;104082;276;38405;-72
2023/07/06 07:10:14;;;;;;;5.80;5.10;;;;;;;28.48;49.52;100536.69;104032;276;38519;-72
2023/07/06 07:12:49;;;;;;;8.40;5.30;;;;;;;28.45;49.75;100539.54;104131;276;39406;-70
2023/07/06 07:15:24;;;;;;;6.60;5.00;;;;;;;28.46;49.78;100540.71;104008;276;38520;-70
2023/07/06 07:17:59;;;;;;;7.00;4.60;;;;;;;28.81;48.40;100544.22;103995;276;174009;-69
2023/07/06 07:20:36;;;;;;;7.50;3.90;;;;;;;29.19;45.24;100544.38;104018;276;38259;-69
2023/07/06 07:23:10;;;;;;;4.70;4.20;;;;;;;29.39;42.99;100541.96;104093;276;38430;-71
2023/07/06 07:25:48;;;;;;;4.30;3.70;;;;;;;29.67;42.58;100541.39;104042;276;38439;-72
2023/07/06 07:28:25;;;;;;;9.60;3.90;;;;;;;30.14;41.47;100537.59;104113;276;38852;-71
2023/07/06 07:31:03;;;;;;;4.30;3.60;;;;;;;30.68;40.17;100538.26;104002;276;38943;-71
2023/07/06 07:33:39;;;;;;;4.60;3.80;;;;;;;31.24;39.46;100542.63;104102;276;38675;-69
2023/07/06 07:36:13;;;;;;;5.40;3.10;;;;;;;31.77;38.22;100543.10;104082;276;39446;-70
2023/07/06 07:38:49;;;;;;;8.00;5.30;;;;;;;32.28;38.08;100543.70;104059;264;38240;-69
2023/07/06 07:41:24;;;;;;;5.40;3.30;;;;;;;32.98;36.45;100547.64;104097;276;38840;-74
2023/07/06 07:44:00;;;;;;;3.80;3.20;;;;;;;33.26;34.04;100547.53;104121;272;38352;-74
2023/07/06 07:46:40;;;;;;;3.20;2.90;;;;;;;33.25;33.13;100553.48;104113;276;39426;-75
2023/07/06 07:49:19;;;;;;;6.00;3.00;;;;;;;33.24;32.26;100554.37;104038;276;38247;-70
2023/07/06 07:51:53;;;;;;;5.40;3.10;;;;;;;33.32;32.78;100557.23;104067;276;38382;-70
2023/07/06 07:54:28;;;;;;;5.10;3.50;;;;;;;33.73;33.13;100555.44;104096;276;38237;-73
2023/07/06 07:57:03;;;;;;;6.00;3.70;;;;;;;34.26;32.28;100562.59;103914;276;38234;-72
2023/07/06 07:59:38;;;;;;;4.70;3.30;;;;;;;34.27;30.77;100563.10;104038;276;39612;-73
2023/07/06 08:02:13;;;;;;;4.00;3.40;;;;;;;34.44;31.25;100568.71;103889;276;39490;-73
2023/07/06 08:04:47;;;;;;;3.30;3.00;;;;;;;34.66;29.44;100564.48;104059;276;38280;-70
2023/07/06 08:07:25;;;;;;;4.60;2.50;;;;;;;34.83;28.83;100565.05;104042;276;38221;-70
2023/07/06 08:10:01;;;;;;;7.20;3.60;;;;;;;35.15;29.89;100563.59;104076;276;38280;-73
2023/07/06 08:12:38;;;;;;;8.20;3.90;;;;;;;35.73;29.69;100564.36;104041;276;38769;-72
2023/07/06 08:15:13;;;;;;;3.60;2.80;;;;;;;36.06;27.14;100566.68;104057;273;39465;-71
2023/07/06 08:17:48;;;;;;;5.10;3.10;;;;;;;35.99;26.58;100566.64;104089;276;39197;-71
2023/07/06 08:20:22;;;;;;;5.20;2.70;;;;;;;36.02;27.33;100556.90;104058;276;39421;-71
2023/07/06 08:22:58;;;;;;;3.30;2.60;;;;;;;36.37;26.97;100562.86;104091;276;38809;-70
2023/07/06 08:25:38;;;;;;;4.00;2.90;;;;;;;36.69;26.79;100569.31;103914;276;38916;-70
2023/07/06 08:28:28;;;;;;;5.00;2.90;;;;;;;36.97;26.67;100566.91;104111;276;38255;-72
2023/07/06 08:31:12;;;;;;;3.80;3.10;;;;;;;37.01;25.15;100567.82;104089;276;38221;-72
2023/07/06 08:33:47;;;;;;;3.70;2.80;;;;;;;36.63;25.34;100566.13;103907;276;39884;-72
2023/07/06 08:36:25;;;;;;;4.20;2.40;;;;;;;35.77;24.93;100568.97;104114;276;38234;-72
2023/07/06 08:39:05;;;;;;;3.20;2.40;;;;;;;35.04;25.84;100570.27;104053;276;38249;-69
2023/07/06 08:41:43;;;;;;;3.80;2.70;;;;;;;34.54;26.08;100571.30;103995;276;39408;-69
2023/07/06 08:44:16;;;;;;;;;;;;;;;33.65;26.25;100574.31;104068;276;38532;-72
2023/07/06 08:46:50;;;;;;;5.80;2.40;;;;;;;32.52;27.27;100580.52;103895;277;39007;-69
2023/07/06 08:49:31;;;;;;;5.40;2.40;;;;;;;31.94;28.12;100578.84;103962;276;38249;-72
2023/07/06 08:52:10;;;;;;;5.70;2.60;;;;;;;31.60;29.01;100581.38;104049;276;38638;-72
2023/07/06 08:54:46;;;;;;;7.60;2.70;;;;;;;31.62;29.85;100585.40;104060;276;39448;-70
2023/07/06 08:57:24;;;;;;;2.70;2.50;;;;;;;32.01;30.04;100584.13;103941;276;174143;-69
2023/07/06 08:59:58;;;;;;;3.50;2.30;;;;;;;32.48;28.86;100588.59;104071;276;38411;-70
2023/07/06 09:02:34;;;;;;;3.30;2.40;;;;;;;32.62;27.72;100584.49;104043;276;38429;-69
2023/07/06 09:05:15;;;;;;;4.50;2.30;;;;;;;32.64;28.67;100581.70;104038;276;38231;-69
2023/07/06 09:07:49;;;;;;;5.70;2.80;;;;;;;32.51;28.77;100583.49;103952;276;174076;-70
2023/07/06 09:10:28;;;;;;;4.90;2.80;;;;;;;32.06;28.27;100588.50;104036;276;38263;-69
2023/07/06 09:13:29;;;;;;;5.20;2.50;;;;;;;31.43;29.35;100582.98;104047;276;38789;-69
2023/07/06 09:16:07;;;;;;;4.90;2.80;;;;;;;30.99;30.18;100588.50;104072;264;39734;-68
2023/07/06 09:18:43;;;;;;;4.80;3.00;;;;;;;30.64;30.86;100593.60;104037;276;38502;-72
2023/07/06 09:21:20;;;;;;;4.80;2.70;;;;;;;30.48;32.39;100598.20;104112;276;39494;-72
2023/07/06 09:23:57;;;;;;;6.40;2.90;;;;;;;30.40;32.84;100595.23;104112;276;38495;-69
2023/07/06 09:26:35;;;;;;;5.10;2.30;;;;;;;30.27;32.31;100592.60;104121;276;38452;-69
2023/07/06 09:29:25;;;;;;;5.40;2.50;;;;;;;29.88;31.29;100594.67;104093;276;38282;-69
2023/07/06 09:32:15;;;;;;;5.90;2.50;;;;;;;29.36;31.89;100595.27;104049;276;38239;-69
2023/07/06 09:34:51;;;;;;;4.40;2.70;;;;;;;29.15;33.06;100599.84;104085;276;38693;-71
2023/07/06 09:37:26;;;;;;;5.10;2.50;;;;;;;29.16;33.56;100601.08;104073;276;38260;-71
2023/07/06 09:40:09;;;;;;;3.00;2.30;;;;;;;29.15;33.39;100602.17;104131;276;38238;-69
2023/07/06 09:42:44;;;;;;;3.00;2.70;;;;;;;29.17;33.63;100610.18;104125;276;39427;-71
2023/07/06 09:45:26;;;;;;;3.90;2.60;;;;;;;29.21;33.82;100612.90;103922;276;174322;-72
2023/07/06 09:48:05;;;;;;;4.90;2.30;;;;;;;29.18;33.44;100615.66;104073;275;38433;-70
2023/07/06 09:50:43;;;;;;;4.30;2.40;;;;;;;29.18;34.22;100617.84;104074;276;39624;-71
2023/07/06 09:53:27;;;;;;;3.10;2.40;;;;;;;29.20;33.77;100621.83;104084;276;39918;-69
2023/07/06 09:56:01;;;;;;;6.30;2.90;;;;;;;29.14;33.56;100625.38;104046;276;39644;-70
2023/07/06 09:58:35;;;;;;;7.80;2.50;;;;;;;29.17;33.94;100627.60;104120;276;38509;-69
2023/07/06 10:01:13;;;;;;;5.90;2.40;;;;;;;29.21;33.53;100632.38;104070;276;39499;-68
2023/07/06 10:04:00;;;;;;;5.00;2.60;;;;;;;29.16;33.58;100628.38;104054;272;39634;-71
2023/07/06 10:06:43;;;;;;;5.20;2.70;;;;;;;29.09;33.31;100625.26;104094;276;39611;-72
2023/07/06 10:09:22;;;;;;;4.60;2.40;;;;;;;29.06;33.84;100621.66;104079;276;38473;-69
2023/07/06 10:11:57;;;;;;;7.50;2.60;;;;;;;29.10;34.11;100625.55;104102;276;38254;-69
2023/07/06 10:14:37;;;;;;;4.00;2.30;;;;;;;29.10;32.92;100624.21;104104;276;38583;-71
2023/07/06 10:17:22;;;;;;;5.80;2.20;;;;;;;29.11;33.92;100626.10;103982;276;188368;-71
2023/07/06 10:20:00;;;;;;;3.60;2.30;;;;;;;29.21;33.37;100625.02;104172;276;38285;-72
2023/07/06 10:22:40;;;;;;;4.40;2.10;;;;;;;29.17;32.21;100620.59;104123;276;38478;-71
2023/07/06 10:25:23;;;;;;;4.00;2.30;;;;;;;29.17;32.99;100616.11;104097;276;38517;-72
2023/07/06 10:28:08;;;;;;;4.70;1.90;;;;;;;29.41;33.53;100613.43;104087;276;38953;-71
2023/07/06 10:30:49;;;;;;;5.10;2.60;;;;;;;29.66;33.16;100614.29;104070;275;38265;-69
2023/07/06 10:33:28;;;;;;;4.20;1.90;;;;;;;29.96;32.51;100613.14;104119;276;38299;-69
2023/07/06 10:36:07;;;;;;;4.70;2.50;;;;;;;30.16;32.55;100613.97;104093;276;38531;-69
2023/07/06 10:38:42;;;;;;;5.10;2.20;;;;;;;30.22;31.03;100612.15;104135;276;39430;-71
2023/07/06 10:41:34;;;;;;;2.60;2.20;;;;;;;30.13;30.85;100612.10;104095;276;38245;-71
2023/07/06 10:44:48;;;;;;;4.50;2.10;;;;;;;30.07;29.46;100618.55;104107;276;38535;-70
2023/07/06 10:47:44;;;;;;;3.20;2.00;;;;;;;29.79;29.31;100613.34;104125;276;38338;-69
2023/07/06 10:50:30;;;;;;;4.60;2.20;;;;;;;29.71;29.84;100616.39;104090;276;38520;-68
2023/07/06 10:53:17;;;;;;;3.50;2.10;;;;;;;29.70;29.20;100619.73;104116;276;38584;-70
2023/07/06 10:56:07;;;;;;;3.90;2.10;;;;;;;29.53;29.49;100622.92;104079;276;39440;-72
2023/07/06 10:58:48;;;;;;;4.40;2.70;;;;;;;29.30;29.86;100620.75;104113;276;39468;-68
2023/07/06 11:01:24;;;;;;;5.00;2.50;;;;;;;29.32;31.22;100623.98;104028;277;41426;-69
2023/07/06 11:04:00;;;;;;;4.50;2.50;;;;;;;29.49;31.49;100616.90;104132;276;39609;-68
2023/07/06 11:06:57;;;;;;;6.20;2.20;;;;;;;29.64;31.23;100619.25;104075;276;38389;-68
2023/07/06 11:09:31;;;;;;;5.60;2.20;;;;;;;29.69;31.18;100622.02;104122;276;39437;-69
2023/07/06 11:12:20;;;;;;;5.70;2.90;;;;;;;29.77;31.17;100625.05;104068;276;38454;-69
2023/07/06 11:14:54;;;;;;;5.00;2.50;;;;;;;29.77;30.91;100626.50;104110;276;40246;-70
2023/07/06 11:17:37;;;;;;;7.60;2.40;;;;;;;29.69;30.40;100623.85;104084;276;38703;-70
2023/07/06 11:20:16;;;;;;;4.50;2.90;;;;;;;29.54;30.55;100622.52;104090;276;38307;-72
2023/07/06 11:22:53;;;;;;;3.70;2.20;;;;;;;29.50;30.56;100628.28;103948;276;173986;-70
2023/07/06 11:25:29;;;;;;;5.00;2.10;;;;;;;29.50;30.34;100632.98;104076;276;39178;-68
2023/07/06 11:28:06;;;;;;;6.70;2.50;;;;;;;29.48;30.53;100636.45;104094;276;39833;-71
2023/07/06 11:30:52;;;;;;;4.10;2.30;;;;;;;29.47;30.68;100639.33;104058;276;38319;-71
2023/07/06 11:33:32;;;;;;;2.50;2.00;;;;;;;29.45;30.77;100645.30;104060;265;39442;-73
2023/07/06 11:36:10;;;;;;;2.50;2.20;;;;;;;29.38;30.10;100649.12;104046;276;39411;-72
2023/07/06 11:39:05;;;;;;;4.10;2.20;;;;;;;29.25;29.89;100648.66;104033;276;39846;-68
2023/07/06 11:41:53;;;;;;;4.90;2.30;;;;;;;28.98;29.77;100648.24;104046;276;39661;-69
2023/07/06 11:44:40;;;;;;;4.80;2.70;;;;;;;28.76;29.83;100655.71;104108;276;39340;-69
2023/07/06 11:47:28;;;;;;;4.70;2.60;;;;;;;28.45;29.84;100652.83;104061;276;39982;-70
2023/07/06 11:50:04;;;;;;;2.80;2.40;;;;;;;28.23;30.03;100657.29;104033;276;38528;-68
2023/07/06 11:52:42;;;;;;;8.30;2.80;;;;;;;28.07;30.71;100659.64;104049;276;38242;-70
2023/07/06 11:55:31;;;;;;;4.40;2.00;;;;;;;28.10;31.78;100661.93;104016;276;38317;-69
2023/07/06 11:58:28;;;;;;;3.30;2.10;;;;;;;28.20;31.22;100658.17;104078;276;38805;-70
2023/07/06 12:01:21;;;;;;;3.30;2.20;;;;;;;28.17;31.07;100662.04;104027;276;39518;-74
2023/07/06 12:04:03;;;;;;;4.00;2.20;;;;;;;28.19;30.75;100662.05;104043;276;39582;-69
2023/07/06 12:06:44;;;;;;;3.50;2.00;;;;;;;28.25;31.43;100663.50;104035;276;38226;-69
2023/07/06 12:09:25;;;;;;;4.10;2.00;;;;;;;28.35;31.63;100670.82;104064;276;38354;-71
2023/07/06 12:12:06;;;;;;;3.60;2.10;;;;;;;28.39;30.85;100671.27;104052;264;38652;-71
2023/07/06 12:14:45;;;;;;;3.70;1.90;;;;;;;28.35;30.50;100667.21;104118;276;38311;-68